New Haven, New York
Current Conditions -  °F | °C
As of 12:54 AM on Wednesday 26 Nov 2014 (Local Time) from KFZY Reporting Station
Overcast Overcast  
Wind Chill: 32°   Ceiling: 4800
Heat Index: 37°   Visibility: 10mi
Dew Point: 25°   Wind: 6mph
Humidity: 62%   Direction: 270°W
Pressure: 30.21"   Gusts: NA
Location:  43.48°N, 76.31°W
Report Text: KFZY 260554Z AUTO 27005KT 10SM FEW031 OVC048 03/M04 A3021 RMK AO2 SLP232 60000 T00281039 10044 20028 53013
Loading
Personal Weather Stations






























Interactive Weather Map New forecast layout! Learn more

10-Day Weather Forecast

Advertisements
Track Severe Weather on mobile